createdAt,value
2022-12-11T00:02:05.825Z,97930.31
2022-12-11T00:04:32.835Z,97936.19
2022-12-11T00:06:59.517Z,97931.06
2022-12-11T00:09:26.178Z,97932.91
2022-12-11T00:11:53.009Z,97922.53
2022-12-11T00:14:19.746Z,97918.22
2022-12-11T00:16:48.481Z,97918.28
2022-12-11T00:19:15.817Z,97914.00
2022-12-11T00:21:42.691Z,97916.75
2022-12-11T00:24:09.473Z,97920.28
2022-12-11T00:26:36.224Z,97928.06
2022-12-11T00:29:03.073Z,97922.88
2022-12-11T00:31:29.919Z,97918.63
2022-12-11T00:33:56.597Z,97909.09
2022-12-11T00:36:25.612Z,97912.59
2022-12-11T00:38:53.159Z,97909.91
2022-12-11T00:41:23.112Z,97909.06
2022-12-11T00:43:50.203Z,97912.50
2022-12-11T00:46:17.049Z,97920.41
2022-12-11T00:48:43.808Z,97911.84
2022-12-11T00:51:10.725Z,97910.03
2022-12-11T00:53:38.701Z,97920.38
2022-12-11T00:56:17.534Z,97920.47
2022-12-11T00:58:45.292Z,97917.06
2022-12-11T01:01:18.413Z,97918.81
2022-12-11T01:03:45.772Z,97924.00
2022-12-11T01:06:17.226Z,97920.63
2022-12-11T01:08:45.129Z,97922.28
2022-12-11T01:11:13.750Z,97919.50
2022-12-11T01:13:41.602Z,97918.59
2022-12-11T01:16:14.189Z,97917.81
2022-12-11T01:18:41.403Z,97923.88
2022-12-11T01:21:09.740Z,97926.59
2022-12-11T01:23:37.452Z,97919.72
2022-12-11T01:26:06.175Z,97917.88
2022-12-11T01:28:32.945Z,97913.56
2022-12-11T01:30:59.625Z,97916.25
2022-12-11T01:33:26.717Z,97918.00
2022-12-11T01:35:54.368Z,97917.16
2022-12-11T01:38:21.103Z,97920.66
2022-12-11T01:40:49.743Z,97918.09
2022-12-11T01:43:16.639Z,97928.38
2022-12-11T01:45:46.142Z,97922.41
2022-12-11T01:48:21.358Z,97920.75
2022-12-11T01:50:57.989Z,97929.41
2022-12-11T01:53:31.725Z,97933.78
2022-12-11T01:55:59.283Z,97936.41
2022-12-11T01:58:41.935Z,97940.66
2022-12-11T02:01:14.704Z,97940.59
2022-12-11T02:03:41.349Z,97944.06
2022-12-11T02:06:33.735Z,97951.09
2022-12-11T02:09:01.421Z,97945.16
2022-12-11T02:11:40.795Z,97938.28
2022-12-11T02:14:28.921Z,97941.69
2022-12-11T02:17:22.638Z,97937.28
2022-12-11T02:20:03.819Z,97931.34
2022-12-11T02:22:48.862Z,97935.59
2022-12-11T02:25:31.313Z,97931.38
2022-12-11T02:28:30.423Z,97927.97
2022-12-11T02:31:16.741Z,97924.53
2022-12-11T02:33:58.264Z,97920.16
2022-12-11T02:36:28.349Z,97916.78
2022-12-11T02:38:58.827Z,97922.81
2022-12-11T02:41:28.888Z,97917.59
2022-12-11T02:43:57.718Z,97914.13
2022-12-11T02:46:25.654Z,97913.31
2022-12-11T02:48:54.207Z,97923.72
2022-12-11T02:51:25.949Z,97912.50
2022-12-11T02:53:56.915Z,97921.97
2022-12-11T02:56:38.165Z,97924.56
2022-12-11T02:59:11.052Z,97920.16
2022-12-11T03:01:38.182Z,97920.09
2022-12-11T03:04:05.433Z,97918.44
2022-12-11T03:06:37.290Z,97916.78
2022-12-11T03:09:05.298Z,97914.06
2022-12-11T03:11:32.018Z,97913.28
2022-12-11T03:13:59.933Z,97910.78
2022-12-11T03:16:35.410Z,97918.50
2022-12-11T03:19:12.610Z,97919.38
2022-12-11T03:22:03.558Z,97920.28
2022-12-11T03:24:43.566Z,97923.78
2022-12-11T03:27:21.827Z,97919.44
2022-12-11T03:29:57.779Z,97925.56
2022-12-11T03:32:31.282Z,97920.38
2022-12-11T03:35:06.058Z,97914.31
2022-12-11T03:37:36.568Z,97914.28
2022-12-11T03:40:10.505Z,97929.03
2022-12-11T03:42:40.266Z,97913.41
2022-12-11T03:45:08.667Z,97914.28
2022-12-11T03:47:37.771Z,97928.19
2022-12-11T03:50:07.331Z,97925.56
2022-12-11T03:52:39.674Z,97913.38
2022-12-11T03:55:13.888Z,97930.78
2022-12-11T03:57:40.650Z,97924.69
2022-12-11T04:00:10.333Z,97933.34
2022-12-11T04:02:40.968Z,97929.84
2022-12-11T04:05:09.161Z,97924.63
2022-12-11T04:07:36.339Z,97913.41
2022-12-11T04:10:04.811Z,97903.84
2022-12-11T04:12:31.428Z,97901.94
2022-12-11T04:15:04.006Z,97903.81
2022-12-11T04:17:53.562Z,97890.03
2022-12-11T04:20:40.086Z,97896.94
2022-12-11T04:23:31.447Z,97890.03
2022-12-11T04:26:16.748Z,97887.47
2022-12-11T04:28:44.852Z,97890.91
2022-12-11T04:31:17.294Z,97887.50
2022-12-11T04:33:44.288Z,97890.13
2022-12-11T04:36:11.658Z,97893.59
2022-12-11T04:38:38.382Z,97890.97
2022-12-11T04:41:16.030Z,97885.72
2022-12-11T04:43:45.253Z,97882.22
2022-12-11T04:46:16.236Z,97887.53
2022-12-11T04:48:43.086Z,97886.72
2022-12-11T04:51:10.159Z,97881.41
2022-12-11T04:53:37.582Z,97877.91
2022-12-11T04:56:09.042Z,97882.13
2022-12-11T04:58:36.870Z,97871.81
2022-12-11T05:01:13.963Z,97877.03
2022-12-11T05:03:41.562Z,97866.63
2022-12-11T05:06:10.110Z,97875.38
2022-12-11T05:08:40.149Z,97875.34
2022-12-11T05:11:09.820Z,97875.34
2022-12-11T05:13:36.569Z,97874.53
2022-12-11T05:16:05.690Z,97877.16
2022-12-11T05:18:32.535Z,97877.88
2022-12-11T05:21:01.332Z,97871.06
2022-12-11T05:23:29.052Z,97858.81
2022-12-11T05:25:58.004Z,97852.78
2022-12-11T05:28:26.481Z,97850.13
2022-12-11T05:31:00.866Z,97852.78
2022-12-11T05:33:28.675Z,97852.69
2022-12-11T05:35:55.460Z,97852.66
2022-12-11T05:38:22.621Z,97858.75
2022-12-11T05:41:03.944Z,97854.41
2022-12-11T05:43:33.400Z,97859.75
2022-12-11T05:46:13.333Z,97865.84
2022-12-11T05:48:41.509Z,97866.66
2022-12-11T05:51:09.113Z,97862.34
2022-12-11T05:53:37.192Z,97876.28
2022-12-11T05:56:06.278Z,97870.16
2022-12-11T05:58:34.355Z,97867.59
2022-12-11T06:01:02.311Z,97877.19
2022-12-11T06:03:28.960Z,97868.50
2022-12-11T06:05:55.804Z,97866.69
2022-12-11T06:08:22.697Z,97870.19
2022-12-11T06:10:50.666Z,97866.72
2022-12-11T06:13:17.618Z,97868.41
2022-12-11T06:15:44.241Z,97871.91
2022-12-11T06:18:11.023Z,97865.81
2022-12-11T06:20:38.027Z,97865.78
2022-12-11T06:23:04.893Z,97859.75
2022-12-11T06:25:31.571Z,97849.34
2022-12-11T06:27:58.340Z,97852.81
2022-12-11T06:30:38.820Z,97856.31
2022-12-11T06:33:06.713Z,97843.28
2022-12-11T06:35:38.614Z,97842.44
2022-12-11T06:38:08.297Z,97845.06
2022-12-11T06:40:34.961Z,97841.59
2022-12-11T06:43:01.692Z,97840.72
2022-12-11T06:45:28.507Z,97843.31
2022-12-11T06:47:55.629Z,97839.84
2022-12-11T06:50:22.233Z,97846.75
2022-12-11T06:52:48.957Z,97858.06
2022-12-11T06:55:15.612Z,97850.25
2022-12-11T06:57:42.354Z,97855.34
2022-12-11T07:00:09.777Z,97851.03
2022-12-11T07:02:36.560Z,97850.22
2022-12-11T07:05:03.584Z,97844.13
2022-12-11T07:07:30.343Z,97852.78
2022-12-11T07:09:57.056Z,97854.56
2022-12-11T07:12:23.854Z,97860.69
2022-12-11T07:14:50.486Z,97861.56
2022-12-11T07:17:17.091Z,97856.34
2022-12-11T07:19:43.827Z,97856.41
2022-12-11T07:22:10.445Z,97860.72
2022-12-11T07:24:37.118Z,97863.34
2022-12-11T07:27:04.474Z,97858.13
2022-12-11T07:29:31.139Z,97865.94
2022-12-11T07:31:57.919Z,97863.34
2022-12-11T07:34:24.881Z,97866.81
2022-12-11T07:36:51.637Z,97863.34
2022-12-11T07:39:20.482Z,97861.66
2022-12-11T07:41:47.290Z,97863.38
2022-12-11T07:44:15.883Z,97872.91
2022-12-11T07:46:42.562Z,97875.47
2022-12-11T07:49:09.240Z,97863.34
2022-12-11T07:51:37.512Z,97862.47
2022-12-11T07:54:16.322Z,97868.56
2022-12-11T07:56:53.257Z,97878.06
2022-12-11T07:59:21.128Z,97877.22
2022-12-11T08:01:47.888Z,97865.09
2022-12-11T08:04:15.741Z,97882.47
2022-12-11T08:06:43.112Z,97876.38
2022-12-11T08:09:17.459Z,97870.28
2022-12-11T08:11:49.365Z,97865.97
2022-12-11T08:14:16.032Z,97860.78
2022-12-11T08:16:44.190Z,97862.50
2022-12-11T08:19:12.018Z,97866.84
2022-12-11T08:21:40.033Z,97865.06
2022-12-11T08:24:06.884Z,97868.53
2022-12-11T08:26:36.425Z,97864.22
2022-12-11T08:29:05.422Z,97872.94
2022-12-11T08:31:33.152Z,97865.97
2022-12-11T08:34:00.234Z,97868.59
2022-12-11T08:36:27.143Z,97875.56
2022-12-11T08:38:55.576Z,97871.25
2022-12-11T08:41:30.183Z,97859.94
2022-12-11T08:43:58.612Z,97859.94
2022-12-11T08:46:27.889Z,97859.06
2022-12-11T08:48:55.606Z,97857.34
2022-12-11T08:51:25.969Z,97857.34
2022-12-11T08:53:55.435Z,97852.16
2022-12-11T08:56:23.619Z,97844.34
2022-12-11T08:58:53.007Z,97853.91
2022-12-11T09:01:22.228Z,97848.66
2022-12-11T09:03:50.388Z,97847.81
2022-12-11T09:06:20.565Z,97853.03
2022-12-11T09:08:52.547Z,97843.50
2022-12-11T09:11:32.199Z,97849.56
2022-12-11T09:14:07.103Z,97841.75
2022-12-11T09:16:37.662Z,97842.63
2022-12-11T09:19:04.582Z,97846.97
2022-12-11T09:21:31.300Z,97836.59
2022-12-11T09:24:00.588Z,97840.06
2022-12-11T09:26:29.204Z,97844.41
2022-12-11T09:28:56.002Z,97838.34
2022-12-11T09:31:27.985Z,97845.28
2022-12-11T09:33:57.217Z,97847.91
2022-12-11T09:36:24.233Z,97846.16
2022-12-11T09:38:51.631Z,97852.25
2022-12-11T09:41:21.458Z,97846.13
2022-12-11T09:43:53.710Z,97846.97
2022-12-11T09:46:24.453Z,97848.72
2022-12-11T09:48:53.491Z,97848.75
2022-12-11T09:51:35.045Z,97847.00
2022-12-11T09:54:04.277Z,97851.34
2022-12-11T09:56:45.130Z,97849.63
2022-12-11T09:59:26.887Z,97842.72
2022-12-11T10:02:15.159Z,97834.00
2022-12-11T10:05:14.566Z,97831.41
2022-12-11T10:07:45.409Z,97827.94
2022-12-11T10:10:50.542Z,97818.38
2022-12-11T10:13:41.341Z,97821.00
2022-12-11T10:16:33.783Z,97814.91
2022-12-11T10:19:01.107Z,97814.03
2022-12-11T10:21:36.456Z,97809.69
2022-12-11T10:24:05.805Z,97809.69
2022-12-11T10:26:32.441Z,97804.47
2022-12-11T10:29:02.557Z,97809.69
2022-12-11T10:31:35.265Z,97799.25
2022-12-11T10:34:13.307Z,97800.13
2022-12-11T10:36:42.872Z,97807.09
2022-12-11T10:39:14.683Z,97798.38
2022-12-11T10:41:43.969Z,97784.50
2022-12-11T10:44:26.733Z,97782.72
2022-12-11T10:47:10.678Z,97793.16
2022-12-11T10:49:39.066Z,97788.81
2022-12-11T10:52:19.932Z,97787.94
2022-12-11T10:54:53.999Z,97776.66
2022-12-11T10:57:28.223Z,97774.03
2022-12-11T10:59:55.646Z,97762.72
2022-12-11T11:02:32.237Z,97754.03
2022-12-11T11:05:01.039Z,97753.97
2022-12-11T11:07:30.407Z,97760.06
2022-12-11T11:10:15.909Z,97751.34
2022-12-11T11:12:46.052Z,97753.91
2022-12-11T11:15:35.840Z,97741.69
2022-12-11T11:18:11.797Z,97747.81
2022-12-11T11:20:47.300Z,97739.03
2022-12-11T11:23:16.125Z,97739.91
2022-12-11T11:25:56.122Z,97744.25
2022-12-11T11:28:37.366Z,97740.81
2022-12-11T11:31:08.500Z,97731.22
2022-12-11T11:33:37.868Z,97733.75
2022-12-11T11:36:07.529Z,97730.28
2022-12-11T11:38:37.171Z,97735.56
2022-12-11T11:41:15.712Z,97725.94
2022-12-11T11:43:44.210Z,97724.13
2022-12-11T11:46:17.781Z,97716.31
2022-12-11T11:48:53.649Z,97721.56
2022-12-11T11:51:29.577Z,97721.56
2022-12-11T11:54:00.032Z,97724.13
2022-12-11T11:56:31.438Z,97724.16
2022-12-11T11:59:12.328Z,97718.84
2022-12-11T12:01:41.922Z,97717.03
2022-12-11T12:04:09.252Z,97714.44
2022-12-11T12:06:50.933Z,97706.63
2022-12-11T12:09:32.531Z,97705.72
2022-12-11T12:12:07.093Z,97711.88
2022-12-11T12:14:58.818Z,97707.50
2022-12-11T12:17:55.147Z,97703.19
2022-12-11T12:20:55.511Z,97704.09
2022-12-11T12:23:45.101Z,97704.09
2022-12-11T12:26:31.195Z,97690.06
2022-12-11T12:29:22.273Z,97694.41
2022-12-11T12:32:13.571Z,97697.13
2022-12-11T12:34:49.020Z,97697.19
2022-12-11T12:37:47.905Z,97706.88
2022-12-11T12:40:43.516Z,97705.13
2022-12-11T12:43:44.878Z,97703.41
2022-12-11T12:46:19.724Z,97714.78
2022-12-11T12:48:46.441Z,97724.34
2022-12-11T12:51:17.528Z,97715.59
2022-12-11T12:53:51.775Z,97711.25
2022-12-11T12:56:19.885Z,97708.66
2022-12-11T12:58:46.684Z,97710.44
2022-12-11T13:01:13.339Z,97713.09
2022-12-11T13:04:47.462Z,97712.19
2022-12-11T13:07:18.738Z,97710.38
2022-12-11T13:09:58.565Z,97714.72
2022-12-11T13:12:42.489Z,97708.63
2022-12-11T13:15:42.613Z,97712.13
2022-12-11T13:18:33.316Z,97716.41
2022-12-11T13:21:00.966Z,97713.81
2022-12-11T13:23:31.010Z,97717.34
2022-12-11T13:26:00.449Z,97723.41
2022-12-11T13:28:28.892Z,97729.53
2022-12-11T13:31:13.660Z,97726.03
2022-12-11T13:33:45.888Z,97720.81
2022-12-11T13:36:17.723Z,97726.91
2022-12-11T13:38:51.110Z,97729.50
2022-12-11T13:41:19.942Z,97734.72
2022-12-11T13:43:49.970Z,97724.25
2022-12-11T13:46:28.544Z,97726.88
2022-12-11T13:49:02.299Z,97729.50
2022-12-11T13:51:31.891Z,97741.66
2022-12-11T13:54:17.897Z,97743.38
2022-12-11T13:56:58.396Z,97741.69
2022-12-11T13:59:28.790Z,97732.09
2022-12-11T14:02:03.978Z,97733.88
2022-12-11T14:04:33.528Z,97739.09
2022-12-11T14:07:01.809Z,97743.47
2022-12-11T14:09:28.866Z,97741.78
2022-12-11T14:11:57.343Z,97749.59
2022-12-11T14:14:33.637Z,97757.41
2022-12-11T14:17:00.784Z,97757.47
2022-12-11T14:19:28.257Z,97764.44
2022-12-11T14:22:03.916Z,97755.78
2022-12-11T14:24:31.496Z,97750.50
2022-12-11T14:26:58.572Z,97753.97
2022-12-11T14:29:26.674Z,97749.63
2022-12-11T14:31:54.073Z,97752.25
2022-12-11T14:34:26.237Z,97760.06
2022-12-11T14:36:54.262Z,97759.25
2022-12-11T14:39:43.336Z,97758.34
2022-12-11T14:42:19.998Z,97748.75
2022-12-11T14:44:55.483Z,97754.84
2022-12-11T14:47:28.047Z,97756.59
2022-12-11T14:50:08.303Z,97758.34
2022-12-11T14:52:57.540Z,97755.72
2022-12-11T14:55:28.662Z,97763.56
2022-12-11T14:57:59.046Z,97767.91
2022-12-11T15:00:27.510Z,97760.97
2022-12-11T15:03:03.400Z,97770.50
2022-12-11T15:05:35.767Z,97767.03
2022-12-11T15:08:12.571Z,97770.50
2022-12-11T15:10:43.428Z,97765.31
2022-12-11T15:13:10.384Z,97756.63
2022-12-11T15:15:47.514Z,97759.25
2022-12-11T15:18:28.399Z,97765.31
2022-12-11T15:20:58.681Z,97761.84
2022-12-11T15:23:26.419Z,97761.81
2022-12-11T15:25:56.725Z,97762.72
2022-12-11T15:28:35.619Z,97767.06
2022-12-11T15:31:24.103Z,97768.78
2022-12-11T15:33:51.384Z,97762.72
2022-12-11T15:36:30.196Z,97764.47
2022-12-11T15:38:57.713Z,97763.56
2022-12-11T15:41:25.106Z,97767.91
2022-12-11T15:43:59.132Z,97773.16
2022-12-11T15:46:26.477Z,97758.38
2022-12-11T15:48:53.876Z,97760.09
2022-12-11T15:51:20.525Z,97760.09
2022-12-11T15:53:47.189Z,97764.47
2022-12-11T15:56:15.300Z,97765.31
2022-12-11T15:58:44.566Z,97771.44
2022-12-11T16:01:11.586Z,97774.06
2022-12-11T16:03:38.293Z,97769.69
2022-12-11T16:06:05.244Z,97774.91
2022-12-11T16:08:32.226Z,97768.84
2022-12-11T16:10:59.048Z,97770.53
2022-12-11T16:13:25.707Z,97769.69
2022-12-11T16:15:54.233Z,97774.03
2022-12-11T16:18:23.411Z,97777.50
2022-12-11T16:20:51.394Z,97767.94
2022-12-11T16:23:18.523Z,97767.94
2022-12-11T16:25:46.475Z,97777.50
2022-12-11T16:28:16.021Z,97775.75
2022-12-11T16:30:44.050Z,97767.09
2022-12-11T16:33:13.290Z,97771.44
2022-12-11T16:35:41.863Z,97766.22
2022-12-11T16:38:10.061Z,97770.56
2022-12-11T16:40:37.526Z,97770.56
2022-12-11T16:43:05.289Z,97769.69
2022-12-11T16:45:32.461Z,97759.25
2022-12-11T16:48:03.723Z,97758.41
2022-12-11T16:50:31.119Z,97754.91
2022-12-11T16:52:57.865Z,97754.03
2022-12-11T16:55:24.730Z,97754.88
2022-12-11T16:57:51.369Z,97750.56
2022-12-11T17:00:18.237Z,97749.69
2022-12-11T17:02:44.930Z,97747.94
2022-12-11T17:05:11.900Z,97751.44
2022-12-11T17:07:40.339Z,97750.56
2022-12-11T17:10:07.772Z,97754.94
2022-12-11T17:12:34.652Z,97746.22
2022-12-11T17:15:01.403Z,97739.28
2022-12-11T17:17:28.068Z,97745.34
2022-12-11T17:19:55.866Z,97743.59
2022-12-11T17:22:22.745Z,97734.03
2022-12-11T17:24:49.647Z,97737.53
2022-12-11T17:27:16.852Z,97727.09
2022-12-11T17:29:43.787Z,97732.31
2022-12-11T17:32:10.483Z,97732.31
2022-12-11T17:34:38.625Z,97734.91
2022-12-11T17:37:05.881Z,97734.06
2022-12-11T17:39:33.442Z,97739.25
2022-12-11T17:42:00.495Z,97730.56
2022-12-11T17:44:30.284Z,97734.03
2022-12-11T17:46:58.544Z,97731.47
2022-12-11T17:49:25.922Z,97728.84
2022-12-11T17:51:53.227Z,97729.72
2022-12-11T17:54:20.145Z,97730.59
2022-12-11T17:56:46.916Z,97731.47
2022-12-11T17:59:13.643Z,97740.16
2022-12-11T18:01:40.506Z,97727.09
2022-12-11T18:04:07.330Z,97722.78
2022-12-11T18:06:34.953Z,97723.63
2022-12-11T18:09:01.965Z,97721.03
2022-12-11T18:11:28.840Z,97727.09
2022-12-11T18:13:55.691Z,97723.63
2022-12-11T18:16:29.354Z,97725.38
2022-12-11T18:18:56.479Z,97722.78
2022-12-11T18:21:26.916Z,97725.34
2022-12-11T18:23:53.951Z,97732.34
2022-12-11T18:26:21.094Z,97732.31
2022-12-11T18:28:49.718Z,97733.19
2022-12-11T18:31:17.345Z,97727.09
2022-12-11T18:33:45.001Z,97721.91
2022-12-11T18:36:13.667Z,97728.88
2022-12-11T18:38:40.987Z,97728.00
2022-12-11T18:41:10.397Z,97726.25
2022-12-11T18:43:37.406Z,97728.00
2022-12-11T18:46:12.566Z,97731.44
2022-12-11T18:48:39.987Z,97736.66
2022-12-11T18:51:09.585Z,97735.81
2022-12-11T18:53:39.117Z,97742.78
2022-12-11T18:56:08.218Z,97740.13
2022-12-11T18:58:35.008Z,97730.59
2022-12-11T19:01:16.004Z,97727.97
2022-12-11T19:03:44.057Z,97737.56
2022-12-11T19:06:13.922Z,97741.88
2022-12-11T19:08:41.075Z,97740.16
2022-12-11T19:11:08.272Z,97740.16
2022-12-11T19:13:35.659Z,97736.69
2022-12-11T19:16:02.456Z,97744.50
2022-12-11T19:18:29.291Z,97740.16
2022-12-11T19:21:06.492Z,97745.34
2022-12-11T19:23:35.724Z,97741.00
2022-12-11T19:26:02.944Z,97743.59
2022-12-11T19:28:29.792Z,97739.28
2022-12-11T19:30:56.505Z,97737.56
2022-12-11T19:33:23.256Z,97740.16
2022-12-11T19:35:49.884Z,97742.75
2022-12-11T19:38:16.794Z,97741.00
2022-12-11T19:40:44.669Z,97738.41
2022-12-11T19:43:11.599Z,97741.91
2022-12-11T19:45:38.427Z,97744.50
2022-12-11T19:48:05.865Z,97730.59
2022-12-11T19:50:35.710Z,97737.53
2022-12-11T19:53:03.666Z,97738.41
2022-12-11T19:55:30.402Z,97741.88
2022-12-11T19:57:57.083Z,97741.88
2022-12-11T20:00:24.663Z,97741.03
2022-12-11T20:02:51.679Z,97734.91
2022-12-11T20:05:18.507Z,97736.69
2022-12-11T20:07:45.295Z,97737.53
2022-12-11T20:10:12.375Z,97741.00
2022-12-11T20:12:39.557Z,97740.16
2022-12-11T20:15:06.915Z,97747.97
2022-12-11T20:17:33.669Z,97747.97
2022-12-11T20:20:00.573Z,97745.34
2022-12-11T20:22:27.342Z,97742.75
2022-12-11T20:24:54.029Z,97754.94
2022-12-11T20:27:20.798Z,97754.91
2022-12-11T20:29:47.465Z,97748.84
2022-12-11T20:32:14.314Z,97745.34
2022-12-11T20:34:41.199Z,97751.47
2022-12-11T20:37:07.986Z,97751.44
2022-12-11T20:39:35.599Z,97755.78
2022-12-11T20:42:04.803Z,97747.97
2022-12-11T20:44:31.991Z,97747.09
2022-12-11T20:46:58.646Z,97752.31
2022-12-11T20:49:26.321Z,97751.44
2022-12-11T20:51:53.517Z,97751.44
2022-12-11T20:54:20.826Z,97750.56
2022-12-11T20:56:47.710Z,97752.31
2022-12-11T20:59:14.397Z,97757.53
2022-12-11T21:01:41.146Z,97747.13
2022-12-11T21:04:07.906Z,97750.59
2022-12-11T21:06:37.475Z,97760.13
2022-12-11T21:09:11.720Z,97757.56
2022-12-11T21:11:38.801Z,97755.81
2022-12-11T21:14:06.472Z,97763.59
2022-12-11T21:16:35.293Z,97760.13
2022-12-11T21:19:02.848Z,97759.25
2022-12-11T21:21:32.299Z,97759.25
2022-12-11T21:23:59.016Z,97767.94
2022-12-11T21:26:25.699Z,97759.25
2022-12-11T21:28:52.481Z,97750.56
2022-12-11T21:31:19.811Z,97760.13
2022-12-11T21:33:46.803Z,97767.06
2022-12-11T21:36:15.267Z,97767.97
2022-12-11T21:38:43.901Z,97766.22
2022-12-11T21:41:16.622Z,97762.72
2022-12-11T21:44:14.543Z,97761.84
2022-12-11T21:46:31.883Z,97766.19
2022-12-11T21:48:59.589Z,97765.34
2022-12-11T21:51:35.690Z,97766.19
2022-12-11T21:54:06.142Z,97770.50
2022-12-11T21:56:33.308Z,97775.69
2022-12-11T21:59:01.451Z,97774.81
2022-12-11T22:01:33.294Z,97774.81
2022-12-11T22:04:00.004Z,97768.72
2022-12-11T22:06:28.337Z,97776.53
2022-12-11T22:08:55.088Z,97771.34
2022-12-11T22:11:26.088Z,97770.50
2022-12-11T22:13:53.290Z,97771.34
2022-12-11T22:16:20.383Z,97772.19
2022-12-11T22:18:47.384Z,97774.78
2022-12-11T22:21:14.792Z,97776.53
2022-12-11T22:23:43.050Z,97772.22
2022-12-11T22:26:15.260Z,97768.78
2022-12-11T22:28:42.108Z,97770.50
2022-12-11T22:31:11.928Z,97767.94
2022-12-11T22:33:39.277Z,97769.69
2022-12-11T22:36:06.572Z,97772.28
2022-12-11T22:38:34.585Z,97773.16
2022-12-11T22:41:02.974Z,97768.81
2022-12-11T22:43:29.659Z,97769.66
2022-12-11T22:45:56.382Z,97771.41
2022-12-11T22:48:27.212Z,97767.09
2022-12-11T22:50:54.646Z,97774.03
2022-12-11T22:53:21.596Z,97767.97
2022-12-11T22:55:48.267Z,97770.56
2022-12-11T22:58:21.430Z,97770.56
2022-12-11T23:00:48.602Z,97773.19
2022-12-11T23:03:15.398Z,97778.38
2022-12-11T23:05:43.264Z,97773.19
2022-12-11T23:08:10.102Z,97780.13
2022-12-11T23:10:40.363Z,97781.00
2022-12-11T23:13:07.507Z,97780.13
2022-12-11T23:15:34.244Z,97780.13
2022-12-11T23:18:00.896Z,97783.59
2022-12-11T23:20:28.343Z,97779.25
2022-12-11T23:22:54.998Z,97778.41
2022-12-11T23:25:21.774Z,97783.63
2022-12-11T23:27:48.636Z,97785.38
2022-12-11T23:30:15.490Z,97788.81
2022-12-11T23:32:42.163Z,97783.59
2022-12-11T23:35:09.152Z,97791.41
2022-12-11T23:37:35.831Z,97790.56
2022-12-11T23:40:05.022Z,97790.56
2022-12-11T23:42:34.188Z,97793.16
2022-12-11T23:45:00.881Z,97793.16
2022-12-11T23:47:27.581Z,97797.50
2022-12-11T23:49:54.194Z,97794.00
2022-12-11T23:52:22.563Z,97791.44
2022-12-11T23:54:51.291Z,97799.22
2022-12-11T23:57:17.964Z,97790.53
2022-12-11T23:59:44.795Z,97794.03
